Stevens Point, WI (54481)

9:00 PM CST on February 07, 2016 (GMT -0600)
Texas Ave. Park area | | Change Station
CLOSE
Current Station
Personal Weather Station
Location: Stevens Point, WI
Elevation: 1093 ft
Nearby Weather Stations

Elev 1093 ft 44.52 °N, 89.55 °W | Updated 10 minutes ago

Overcast
Overcast
35.1 °F
Feels Like 30 °F
N
5.3
Wind Variable Wind from West

Today
High -- | Low -- °F
--% Chance of Precip.
Yesterday
High -- | Low -- °F
Precip. -- in
Pressure 29.58 in
Visibility 10.0 miles
Clouds Overcast 3600 ft
Windchill 30 °F
Dew Point 28 °F
Humidity 75%
Rainfall 0.25 in
Snow Depth Not available.
7:10 AM 5:15 PM
Waning Crescent, 0% visible
METAR KSTE 080255Z AUTO 23006KT 10SM OVC036 01/M04 A2958 RMK AO2 T00101040
Pressure 29.58 in
Visibility 10.0 miles
Clouds Overcast 3600 ft
Windchill 30 °F
Dew Point 28 °F
Humidity 75%
Rainfall 0.25 in
Snow Depth Not available.
7:10 AM 5:15 PM
Waning Crescent, 0% visible
METAR KSTE 080255Z AUTO 23006KT 10SM OVC036 01/M04 A2958 RMK AO2 T00101040

10-Day Weather Forecast

Almanac

Astronomy

Feb. 07, 2016 Rise Set
Actual Time
Civil Twilight
Nautical Twilight
Astronomical Twilight
Moon
Length of Visible Light
Length of Day
Tomorrow will be .
, % of the Moon is Illuminated

Today's Extremes

State Highs State Lows

Community

WunderPhotos

Upload Photos

1,891,373 photos uploaded!

WunderBlog® & News

Nearby

Air Quality

  Air Quality AQ Index Pollutant
Not available.

Snow Depth

Station Depth Elevation

Earthquake Activity

City Distance Mag. Time & Date
Minimum magnitude displayed is 2.5.

Coastal Water Temperatures

Place Temperature

Stations

Nearby Weather Stations

Station Location Temp. Windchill Dew Point Humidity Wind Precip. Elev Updated Type
                   

Watches & Warnings

There are currently no watches in effect.